Missouri River (Missouri), Waverly (06895500)

StateMissouriLatestUnknown (92900 cfs)
RiverMissouri RiverRatingObservedEstimated
Updated2024-05-27 7:00 (1 hour ago)Flood - The river is flooding. Obstacles can be treacherous or deadly. The river should be avoided at this stage for casual trips and definitely for the inexperienced. Trips should be attempted only with protective gear and equipment.Flood(none)(none)
Discharge92900 cfs (median: 71100 cfs)High - The river is high and potentially dangerous, especially for the young and / or inexperienced. Normal stream obstacles are sometimes difficult to navigate. Extended distances can be attempted, but canoe travel may not be advisable.High(none)(none)
Height17.3 feetGood - Conditions are ideal for a canoe or kayak. Boats typically will drag on fewer than one-quarter of riffles, if at all, and portages are unnecessary or rare. Normal float lengths can be attempted without a problem.Good(none)(none)
TrendFalling (falling over 24 hours)Low - River is low but can still be floated. Some riffles are okay but most come with significant dragging and might need a portage. Float lengths should be reduced to accommodate low flow, dragging, and portages.Low(none)(none)
USGSExternal icon USGS Site (External icon Duck Duck Go Maps)Poor - River is too low to float comfortably. Most or all riffles will drag or must be portaged and some obstacles (such as slick shelf rock) cause undue problems. Avoid the river at this stage for casual paddling trips.Poor(none)(none)

Trending Data

Plot Image

Trips for Missouri River (Missouri), Waverly (06895500)

DateStartEndDistanceConditionDischargeHeightFishingDetails

A total of 0 rows are displayed.

Condition Descriptions

Fishing Conditions

Fish Species

Notes

Classic Trip List

The classic River Trips application is still available for use. It is updated with the new system using a data retrofit. It is no longer maintained. The original River Trips application is no longer updated (as of 1 Dec 2016) but can be checked for errors or for the condition of the data before it was converted to the new system.

Gauge Data Table

ObservationHeightDischargeMaximum
Discharge
Minimum
Discharge
Mean
Discharge
P05P10P20P25P50
(Median)
P75P80P90P95
2024-05-27 07:00 17.30 92900 248000 (2019) 36700 (2006) 86400 39600 44500 51800 52700 71100 108000 118000 151000 185000
2024-05-27 06:00 17.34 93300 248000 (2019) 36700 (2006) 86400 39600 44500 51800 52700 71100 108000 118000 151000 185000
2024-05-27 05:00 17.36 93500 248000 (2019) 36700 (2006) 86400 39600 44500 51800 52700 71100 108000 118000 151000 185000
2024-05-27 04:00 17.40 93900 248000 (2019) 36700 (2006) 86400 39600 44500 51800 52700 71100 108000 118000 151000 185000
2024-05-27 03:00 17.44 94300 248000 (2019) 36700 (2006) 86400 39600 44500 51800 52700 71100 108000 118000 151000 185000
2024-05-27 02:00 17.42 94100 248000 (2019) 36700 (2006) 86400 39600 44500 51800 52700 71100 108000 118000 151000 185000
2024-05-27 01:00 17.49 94800 248000 (2019) 36700 (2006) 86400 39600 44500 51800 52700 71100 108000 118000 151000 185000
2024-05-27 00:00 17.47 94600 248000 (2019) 36700 (2006) 86400 39600 44500 51800 52700 71100 108000 118000 151000 185000
2024-05-26 23:00 17.53 95200 248000 (2019) 36700 (2006) 86400 39600 44500 51800 52700 71100 108000 118000 151000 185000
2024-05-26 22:00 17.55 95400 247000 (2019) 37500 (1967) 83000 40200 45900 51400 53000 70200 105000 113000 134000 160000
2024-05-26 21:00 17.58 95700 247000 (2019) 37500 (1967) 83000 40200 45900 51400 53000 70200 105000 113000 134000 160000
2024-05-26 20:00 17.62 96100 247000 (2019) 37500 (1967) 83000 40200 45900 51400 53000 70200 105000 113000 134000 160000
2024-05-26 19:00 17.65 96400 247000 (2019) 37500 (1967) 83000 40200 45900 51400 53000 70200 105000 113000 134000 160000
2024-05-26 18:00 17.69 96800 247000 (2019) 37500 (1967) 83000 40200 45900 51400 53000 70200 105000 113000 134000 160000
2024-05-26 17:00 17.74 97300 247000 (2019) 37500 (1967) 83000 40200 45900 51400 53000 70200 105000 113000 134000 160000
2024-05-26 16:00 17.76 97500 247000 (2019) 37500 (1967) 83000 40200 45900 51400 53000 70200 105000 113000 134000 160000
2024-05-26 15:00 17.81 98000 247000 (2019) 37500 (1967) 83000 40200 45900 51400 53000 70200 105000 113000 134000 160000
2024-05-26 14:00 17.83 98200 247000 (2019) 37500 (1967) 83000 40200 45900 51400 53000 70200 105000 113000 134000 160000
2024-05-26 13:00 17.89 98800 247000 (2019) 37500 (1967) 83000 40200 45900 51400 53000 70200 105000 113000 134000 160000
2024-05-26 12:00 17.93 99200 247000 (2019) 37500 (1967) 83000 40200 45900 51400 53000 70200 105000 113000 134000 160000
2024-05-26 11:00 18.00 100000 247000 (2019) 37500 (1967) 83000 40200 45900 51400 53000 70200 105000 113000 134000 160000
2024-05-26 10:00 18.06 101000 247000 (2019) 37500 (1967) 83000 40200 45900 51400 53000 70200 105000 113000 134000 160000
2024-05-26 09:00 18.08 101000 247000 (2019) 37500 (1967) 83000 40200 45900 51400 53000 70200 105000 113000 134000 160000
2024-05-26 08:00 18.13 101000 247000 (2019) 37500 (1967) 83000 40200 45900 51400 53000 70200 105000 113000 134000 160000
2024-05-26 07:00 18.19 102000 247000 (2019) 37500 (1967) 83000 40200 45900 51400 53000 70200 105000 113000 134000 160000
2024-05-26 06:00 18.35 104000 247000 (2019) 37500 (1967) 83000 40200 45900 51400 53000 70200 105000 113000 134000 160000
2024-05-26 05:00 18.41 104000 247000 (2019) 37500 (1967) 83000 40200 45900 51400 53000 70200 105000 113000 134000 160000
2024-05-26 04:00 18.48 105000 247000 (2019) 37500 (1967) 83000 40200 45900 51400 53000 70200 105000 113000 134000 160000
2024-05-26 03:00 18.56 106000 247000 (2019) 37500 (1967) 83000 40200 45900 51400 53000 70200 105000 113000 134000 160000
2024-05-26 02:00 18.59 106000 247000 (2019) 37500 (1967) 83000 40200 45900 51400 53000 70200 105000 113000 134000 160000
2024-05-26 01:00 18.65 107000 247000 (2019) 37500 (1967) 83000 40200 45900 51400 53000 70200 105000 113000 134000 160000
2024-05-26 00:00 18.75 108000 247000 (2019) 37500 (1967) 83000 40200 45900 51400 53000 70200 105000 113000 134000 160000
2024-05-25 23:00 18.90 110000 247000 (2019) 37500 (1967) 83000 40200 45900 51400 53000 70200 105000 113000 134000 160000
2024-05-25 22:00 19.01 111000 232000 (2019) 37500 (1964) 80600 39100 45000 48900 52100 71400 97900 105000 130000 153000
2024-05-25 21:00 19.11 112000 232000 (2019) 37500 (1964) 80600 39100 45000 48900 52100 71400 97900 105000 130000 153000
2024-05-25 20:00 19.21 113000 232000 (2019) 37500 (1964) 80600 39100 45000 48900 52100 71400 97900 105000 130000 153000
2024-05-25 19:00 19.32 114000 232000 (2019) 37500 (1964) 80600 39100 45000 48900 52100 71400 97900 105000 130000 153000
2024-05-25 18:00 19.46 116000 232000 (2019) 37500 (1964) 80600 39100 45000 48900 52100 71400 97900 105000 130000 153000
2024-05-25 17:00 19.60 118000 232000 (2019) 37500 (1964) 80600 39100 45000 48900 52100 71400 97900 105000 130000 153000
2024-05-25 16:00 19.69 119000 232000 (2019) 37500 (1964) 80600 39100 45000 48900 52100 71400 97900 105000 130000 153000
2024-05-25 15:00 19.79 120000 232000 (2019) 37500 (1964) 80600 39100 45000 48900 52100 71400 97900 105000 130000 153000
2024-05-25 14:00 19.89 121000 232000 (2019) 37500 (1964) 80600 39100 45000 48900 52100 71400 97900 105000 130000 153000
2024-05-25 13:00 19.95 122000 232000 (2019) 37500 (1964) 80600 39100 45000 48900 52100 71400 97900 105000 130000 153000
2024-05-25 12:00 20.04 123000 232000 (2019) 37500 (1964) 80600 39100 45000 48900 52100 71400 97900 105000 130000 153000
2024-05-25 11:00 20.11 124000 232000 (2019) 37500 (1964) 80600 39100 45000 48900 52100 71400 97900 105000 130000 153000
2024-05-25 10:00 20.22 125000 232000 (2019) 37500 (1964) 80600 39100 45000 48900 52100 71400 97900 105000 130000 153000
2024-05-25 09:00 20.29 126000 232000 (2019) 37500 (1964) 80600 39100 45000 48900 52100 71400 97900 105000 130000 153000
2024-05-25 08:00 20.37 127000 232000 (2019) 37500 (1964) 80600 39100 45000 48900 52100 71400 97900 105000 130000 153000
2024-05-25 07:00 20.47 128000 232000 (2019) 37500 (1964) 80600 39100 45000 48900 52100 71400 97900 105000 130000 153000
2024-05-25 06:00 20.58 130000 232000 (2019) 37500 (1964) 80600 39100 45000 48900 52100 71400 97900 105000 130000 153000
2024-05-25 05:00 20.62 130000 232000 (2019) 37500 (1964) 80600 39100 45000 48900 52100 71400 97900 105000 130000 153000
2024-05-25 04:00 20.67 131000 232000 (2019) 37500 (1964) 80600 39100 45000 48900 52100 71400 97900 105000 130000 153000
2024-05-25 03:00 20.71 131000 232000 (2019) 37500 (1964) 80600 39100 45000 48900 52100 71400 97900 105000 130000 153000
2024-05-25 01:00 20.80 132000 232000 (2019) 37500 (1964) 80600 39100 45000 48900 52100 71400 97900 105000 130000 153000
2024-05-25 00:00 20.84 133000 232000 (2019) 37500 (1964) 80600 39100 45000 48900 52100 71400 97900 105000 130000 153000
2024-05-24 23:00 20.85 133000 232000 (2019) 37500 (1964) 80600 39100 45000 48900 52100 71400 97900 105000 130000 153000
2024-05-24 22:00 20.83 133000 232000 (2019) 34000 (1964) 79000 39400 44400 47500 49600 70000 101000 107000 123000 149000
2024-05-24 21:00 20.81 132000 232000 (2019) 34000 (1964) 79000 39400 44400 47500 49600 70000 101000 107000 123000 149000
2024-05-24 20:00 20.84 133000 232000 (2019) 34000 (1964) 79000 39400 44400 47500 49600 70000 101000 107000 123000 149000
2024-05-24 19:00 20.85 133000 232000 (2019) 34000 (1964) 79000 39400 44400 47500 49600 70000 101000 107000 123000 149000
2024-05-24 18:00 20.79 132000 232000 (2019) 34000 (1964) 79000 39400 44400 47500 49600 70000 101000 107000 123000 149000
2024-05-24 17:00 20.69 131000 232000 (2019) 34000 (1964) 79000 39400 44400 47500 49600 70000 101000 107000 123000 149000
2024-05-24 16:00 20.60 130000 232000 (2019) 34000 (1964) 79000 39400 44400 47500 49600 70000 101000 107000 123000 149000
2024-05-24 15:00 20.53 129000 232000 (2019) 34000 (1964) 79000 39400 44400 47500 49600 70000 101000 107000 123000 149000
2024-05-24 14:00 20.47 128000 232000 (2019) 34000 (1964) 79000 39400 44400 47500 49600 70000 101000 107000 123000 149000
2024-05-24 13:00 20.34 127000 232000 (2019) 34000 (1964) 79000 39400 44400 47500 49600 70000 101000 107000 123000 149000
2024-05-24 12:00 20.22 125000 232000 (2019) 34000 (1964) 79000 39400 44400 47500 49600 70000 101000 107000 123000 149000
2024-05-24 11:00 20.04 123000 232000 (2019) 34000 (1964) 79000 39400 44400 47500 49600 70000 101000 107000 123000 149000
2024-05-24 10:00 19.83 120000 232000 (2019) 34000 (1964) 79000 39400 44400 47500 49600 70000 101000 107000 123000 149000
2024-05-24 09:00 19.62 118000 232000 (2019) 34000 (1964) 79000 39400 44400 47500 49600 70000 101000 107000 123000 149000
2024-05-24 08:00 19.43 116000 232000 (2019) 34000 (1964) 79000 39400 44400 47500 49600 70000 101000 107000 123000 149000
2024-05-24 07:00 19.20 113000 232000 (2019) 34000 (1964) 79000 39400 44400 47500 49600 70000 101000 107000 123000 149000
2024-05-24 06:00 18.93 110000 232000 (2019) 34000 (1964) 79000 39400 44400 47500 49600 70000 101000 107000 123000 149000
2024-05-24 05:00 18.67 107000 232000 (2019) 34000 (1964) 79000 39400 44400 47500 49600 70000 101000 107000 123000 149000
2024-05-24 04:00 18.36 104000 232000 (2019) 34000 (1964) 79000 39400 44400 47500 49600 70000 101000 107000 123000 149000
2024-05-24 03:00 18.05 100000 232000 (2019) 34000 (1964) 79000 39400 44400 47500 49600 70000 101000 107000 123000 149000
2024-05-24 02:00 17.73 97200 232000 (2019) 34000 (1964) 79000 39400 44400 47500 49600 70000 101000 107000 123000 149000
2024-05-24 01:00 17.42 94100 232000 (2019) 34000 (1964) 79000 39400 44400 47500 49600 70000 101000 107000 123000 149000
2024-05-24 00:00 17.16 91500 232000 (2019) 34000 (1964) 79000 39400 44400 47500 49600 70000 101000 107000 123000 149000
2024-05-23 23:00 16.89 88900 232000 (2019) 34000 (1964) 79000 39400 44400 47500 49600 70000 101000 107000 123000 149000
2024-05-23 22:00 16.61 86300 264000 (2019) 32100 (1964) 79800 41000 45400 47900 49500 65700 102000 114000 131000 163000
2024-05-23 21:00 16.41 84500 264000 (2019) 32100 (1964) 79800 41000 45400 47900 49500 65700 102000 114000 131000 163000
2024-05-23 20:00 16.18 82400 264000 (2019) 32100 (1964) 79800 41000 45400 47900 49500 65700 102000 114000 131000 163000
2024-05-23 19:00 16.06 81300 264000 (2019) 32100 (1964) 79800 41000 45400 47900 49500 65700 102000 114000 131000 163000
2024-05-23 18:00 15.93 80100 264000 (2019) 32100 (1964) 79800 41000 45400 47900 49500 65700 102000 114000 131000 163000
2024-05-23 17:00 15.79 78900 264000 (2019) 32100 (1964) 79800 41000 45400 47900 49500 65700 102000 114000 131000 163000
2024-05-23 16:00 15.66 77800 264000 (2019) 32100 (1964) 79800 41000 45400 47900 49500 65700 102000 114000 131000 163000
2024-05-23 15:00 15.59 77200 264000 (2019) 32100 (1964) 79800 41000 45400 47900 49500 65700 102000 114000 131000 163000
2024-05-23 14:00 15.51 76500 264000 (2019) 32100 (1964) 79800 41000 45400 47900 49500 65700 102000 114000 131000 163000
2024-05-23 13:00 15.48 76300 264000 (2019) 32100 (1964) 79800 41000 45400 47900 49500 65700 102000 114000 131000 163000
2024-05-23 12:00 15.40 75600 264000 (2019) 32100 (1964) 79800 41000 45400 47900 49500 65700 102000 114000 131000 163000
2024-05-23 11:00 15.38 75400 264000 (2019) 32100 (1964) 79800 41000 45400 47900 49500 65700 102000 114000 131000 163000
2024-05-23 10:00 15.28 74600 264000 (2019) 32100 (1964) 79800 41000 45400 47900 49500 65700 102000 114000 131000 163000
2024-05-23 09:00 15.25 74300 264000 (2019) 32100 (1964) 79800 41000 45400 47900 49500 65700 102000 114000 131000 163000
2024-05-23 08:00 15.28 74600 264000 (2019) 32100 (1964) 79800 41000 45400 47900 49500 65700 102000 114000 131000 163000
2024-05-23 07:00 15.27 74500 264000 (2019) 32100 (1964) 79800 41000 45400 47900 49500 65700 102000 114000 131000 163000
2024-05-23 06:00 15.25 74300 264000 (2019) 32100 (1964) 79800 41000 45400 47900 49500 65700 102000 114000 131000 163000
2024-05-23 05:00 15.17 73700 264000 (2019) 32100 (1964) 79800 41000 45400 47900 49500 65700 102000 114000 131000 163000
2024-05-23 04:00 15.21 74000 264000 (2019) 32100 (1964) 79800 41000 45400 47900 49500 65700 102000 114000 131000 163000
2024-05-23 03:00 15.20 73900 264000 (2019) 32100 (1964) 79800 41000 45400 47900 49500 65700 102000 114000 131000 163000
2024-05-23 02:00 15.18 73700 264000 (2019) 32100 (1964) 79800 41000 45400 47900 49500 65700 102000 114000 131000 163000
2024-05-23 01:00 15.16 73600 264000 (2019) 32100 (1964) 79800 41000 45400 47900 49500 65700 102000 114000 131000 163000
2024-05-23 00:00 15.14 73400 264000 (2019) 32100 (1964) 79800 41000 45400 47900 49500 65700 102000 114000 131000 163000
2024-05-22 23:00 15.12 73300 264000 (2019) 32100 (1964) 79800 41000 45400 47900 49500 65700 102000 114000 131000 163000
2024-05-22 22:00 15.09 73000 256000 (2019) 32600 (1964) 79300 42100 44300 47900 50000 67200 101000 109000 136000 163000
2024-05-22 21:00 15.08 72900 256000 (2019) 32600 (1964) 79300 42100 44300 47900 50000 67200 101000 109000 136000 163000
2024-05-22 20:00 15.06 72800 256000 (2019) 32600 (1964) 79300 42100 44300 47900 50000 67200 101000 109000 136000 163000
2024-05-22 19:00 15.03 72500 256000 (2019) 32600 (1964) 79300 42100 44300 47900 50000 67200 101000 109000 136000 163000
2024-05-22 18:00 15.03 72500 256000 (2019) 32600 (1964) 79300 42100 44300 47900 50000 67200 101000 109000 136000 163000
2024-05-22 17:00 15.01 72400 256000 (2019) 32600 (1964) 79300 42100 44300 47900 50000 67200 101000 109000 136000 163000
2024-05-22 16:00 14.97 72000 256000 (2019) 32600 (1964) 79300 42100 44300 47900 50000 67200 101000 109000 136000 163000
2024-05-22 15:00 14.95 71900 256000 (2019) 32600 (1964) 79300 42100 44300 47900 50000 67200 101000 109000 136000 163000
2024-05-22 14:00 14.92 71600 256000 (2019) 32600 (1964) 79300 42100 44300 47900 50000 67200 101000 109000 136000 163000
2024-05-22 13:00 14.88 71300 256000 (2019) 32600 (1964) 79300 42100 44300 47900 50000 67200 101000 109000 136000 163000
2024-05-22 12:00 14.85 71100 256000 (2019) 32600 (1964) 79300 42100 44300 47900 50000 67200 101000 109000 136000 163000
2024-05-22 11:00 14.81 70700 256000 (2019) 32600 (1964) 79300 42100 44300 47900 50000 67200 101000 109000 136000 163000
2024-05-22 10:00 14.78 70500 256000 (2019) 32600 (1964) 79300 42100 44300 47900 50000 67200 101000 109000 136000 163000
2024-05-22 09:00 14.73 70100 256000 (2019) 32600 (1964) 79300 42100 44300 47900 50000 67200 101000 109000 136000 163000
2024-05-22 08:00 14.70 69900 256000 (2019) 32600 (1964) 79300 42100 44300 47900 50000 67200 101000 109000 136000 163000
2024-05-22 07:00 14.66 69500 256000 (2019) 32600 (1964) 79300 42100 44300 47900 50000 67200 101000 109000 136000 163000
2024-05-22 06:00 14.63 69300 256000 (2019) 32600 (1964) 79300 42100 44300 47900 50000 67200 101000 109000 136000 163000
2024-05-22 05:00 14.61 69100 256000 (2019) 32600 (1964) 79300 42100 44300 47900 50000 67200 101000 109000 136000 163000
2024-05-22 04:00 14.55 68700 256000 (2019) 32600 (1964) 79300 42100 44300 47900 50000 67200 101000 109000 136000 163000
2024-05-22 03:00 14.53 68500 256000 (2019) 32600 (1964) 79300 42100 44300 47900 50000 67200 101000 109000 136000 163000
2024-05-22 02:00 14.48 68100 256000 (2019) 32600 (1964) 79300 42100 44300 47900 50000 67200 101000 109000 136000 163000
2024-05-22 01:00 14.54 68600 256000 (2019) 32600 (1964) 79300 42100 44300 47900 50000 67200 101000 109000 136000 163000
2024-05-22 00:00 14.48 68100 256000 (2019) 32600 (1964) 79300 42100 44300 47900 50000 67200 101000 109000 136000 163000
2024-05-21 23:00 14.44 67800 256000 (2019) 32600 (1964) 79300 42100 44300 47900 50000 67200 101000 109000 136000 163000
2024-05-21 22:00 14.36 67200 196000 (2019) 33700 (1964) 78000 40500 44200 48600 51500 68300 95000 108000 132000 162000
2024-05-21 21:00 14.39 67400 196000 (2019) 33700 (1964) 78000 40500 44200 48600 51500 68300 95000 108000 132000 162000
2024-05-21 20:00 14.34 67000 196000 (2019) 33700 (1964) 78000 40500 44200 48600 51500 68300 95000 108000 132000 162000
2024-05-21 19:00 14.31 66800 196000 (2019) 33700 (1964) 78000 40500 44200 48600 51500 68300 95000 108000 132000 162000
2024-05-21 18:00 14.35 67100 196000 (2019) 33700 (1964) 78000 40500 44200 48600 51500 68300 95000 108000 132000 162000
2024-05-21 17:00 14.36 67200 196000 (2019) 33700 (1964) 78000 40500 44200 48600 51500 68300 95000 108000 132000 162000
2024-05-21 16:00 14.37 67300 196000 (2019) 33700 (1964) 78000 40500 44200 48600 51500 68300 95000 108000 132000 162000
2024-05-21 15:00 14.38 67400 196000 (2019) 33700 (1964) 78000 40500 44200 48600 51500 68300 95000 108000 132000 162000
2024-05-21 14:00 14.34 67000 196000 (2019) 33700 (1964) 78000 40500 44200 48600 51500 68300 95000 108000 132000 162000
2024-05-21 13:00 14.38 67400 196000 (2019) 33700 (1964) 78000 40500 44200 48600 51500 68300 95000 108000 132000 162000
2024-05-21 12:00 14.40 67500 196000 (2019) 33700 (1964) 78000 40500 44200 48600 51500 68300 95000 108000 132000 162000
2024-05-21 11:00 14.40 67500 196000 (2019) 33700 (1964) 78000 40500 44200 48600 51500 68300 95000 108000 132000 162000
2024-05-21 10:00 14.39 67400 196000 (2019) 33700 (1964) 78000 40500 44200 48600 51500 68300 95000 108000 132000 162000
2024-05-21 09:00 14.43 67700 196000 (2019) 33700 (1964) 78000 40500 44200 48600 51500 68300 95000 108000 132000 162000
2024-05-21 08:00 14.44 67800 196000 (2019) 33700 (1964) 78000 40500 44200 48600 51500 68300 95000 108000 132000 162000
2024-05-21 07:00 14.44 67800 196000 (2019) 33700 (1964) 78000 40500 44200 48600 51500 68300 95000 108000 132000 162000
2024-05-21 06:00 14.49 68200 196000 (2019) 33700 (1964) 78000 40500 44200 48600 51500 68300 95000 108000 132000 162000
2024-05-21 05:00 14.50 68300 196000 (2019) 33700 (1964) 78000 40500 44200 48600 51500 68300 95000 108000 132000 162000
2024-05-21 04:00 14.52 68400 196000 (2019) 33700 (1964) 78000 40500 44200 48600 51500 68300 95000 108000 132000 162000
2024-05-21 03:00 14.53 68500 196000 (2019) 33700 (1964) 78000 40500 44200 48600 51500 68300 95000 108000 132000 162000
2024-05-21 02:00 14.54 68600 196000 (2019) 33700 (1964) 78000 40500 44200 48600 51500 68300 95000 108000 132000 162000
2024-05-21 01:00 14.53 68500 196000 (2019) 33700 (1964) 78000 40500 44200 48600 51500 68300 95000 108000 132000 162000
2024-05-21 00:00 14.54 68600 196000 (2019) 33700 (1964) 78000 40500 44200 48600 51500 68300 95000 108000 132000 162000
2024-05-20 23:00 14.56 68800 196000 (2019) 33700 (1964) 78000 40500 44200 48600 51500 68300 95000 108000 132000 162000
2024-05-20 22:00 14.58 68900 209000 (1995) 34000 (1964) 78200 41900 43600 47700 51000 69100 90600 103000 134000 161000
2024-05-20 21:00 14.59 69000 209000 (1995) 34000 (1964) 78200 41900 43600 47700 51000 69100 90600 103000 134000 161000
2024-05-20 20:00 14.58 68900 209000 (1995) 34000 (1964) 78200 41900 43600 47700 51000 69100 90600 103000 134000 161000
2024-05-20 19:00 14.62 69200 209000 (1995) 34000 (1964) 78200 41900 43600 47700 51000 69100 90600 103000 134000 161000
2024-05-20 18:00 14.62 69200 209000 (1995) 34000 (1964) 78200 41900 43600 47700 51000 69100 90600 103000 134000 161000
2024-05-20 17:00 14.63 69300 209000 (1995) 34000 (1964) 78200 41900 43600 47700 51000 69100 90600 103000 134000 161000
2024-05-20 16:00 14.65 69500 209000 (1995) 34000 (1964) 78200 41900 43600 47700 51000 69100 90600 103000 134000 161000
2024-05-20 15:00 14.65 69500 209000 (1995) 34000 (1964) 78200 41900 43600 47700 51000 69100 90600 103000 134000 161000
2024-05-20 14:00 14.68 69700 209000 (1995) 34000 (1964) 78200 41900 43600 47700 51000 69100 90600 103000 134000 161000
2024-05-20 13:00 14.66 69500 209000 (1995) 34000 (1964) 78200 41900 43600 47700 51000 69100 90600 103000 134000 161000
2024-05-20 12:00 14.70 69900 209000 (1995) 34000 (1964) 78200 41900 43600 47700 51000 69100 90600 103000 134000 161000
2024-05-20 11:00 14.71 69900 209000 (1995) 34000 (1964) 78200 41900 43600 47700 51000 69100 90600 103000 134000 161000
2024-05-20 10:00 14.70 69900 209000 (1995) 34000 (1964) 78200 41900 43600 47700 51000 69100 90600 103000 134000 161000
2024-05-20 09:00 14.73 70100 209000 (1995) 34000 (1964) 78200 41900 43600 47700 51000 69100 90600 103000 134000 161000
2024-05-20 08:00 14.76 70300 209000 (1995) 34000 (1964) 78200 41900 43600 47700 51000 69100 90600 103000 134000 161000
2024-05-20 07:00 14.77 70400 209000 (1995) 34000 (1964) 78200 41900 43600 47700 51000 69100 90600 103000 134000 161000
2024-05-20 06:00 14.78 70500 209000 (1995) 34000 (1964) 78200 41900 43600 47700 51000 69100 90600 103000 134000 161000
2024-05-20 05:00 14.80 70700 209000 (1995) 34000 (1964) 78200 41900 43600 47700 51000 69100 90600 103000 134000 161000
2024-05-20 04:00 14.82 70800 209000 (1995) 34000 (1964) 78200 41900 43600 47700 51000 69100 90600 103000 134000 161000
2024-05-20 03:00 14.81 70700 209000 (1995) 34000 (1964) 78200 41900 43600 47700 51000 69100 90600 103000 134000 161000
2024-05-20 02:00 14.83 70900 209000 (1995) 34000 (1964) 78200 41900 43600 47700 51000 69100 90600 103000 134000 161000
2024-05-20 01:00 14.86 71100 209000 (1995) 34000 (1964) 78200 41900 43600 47700 51000 69100 90600 103000 134000 161000
2024-05-20 00:00 14.78 70500 209000 (1995) 34000 (1964) 78200 41900 43600 47700 51000 69100 90600 103000 134000 161000
2024-05-19 23:00 14.87 71200 209000 (1995) 34000 (1964) 78200 41900 43600 47700 51000 69100 90600 103000 134000 161000

A total of 176 rows are displayed for years 1958 through 2023.